Time;durP1;ratioP1;P1;durP2;ratioP2;P2;SDS_P1;SDS_P2;PMS_P1;PMS_P2;Temp;Humidity;BMP_temperature;BMP_pressure;BME280_temperature;BME280_humidity;BME280_pressure;Samples;Min_cycle;Max_cycle;Signal;HPM_P1;HPM_P2
2022/01/29 00:02:05;;;;;;;;;16.33;15.67;;;;;10.60;57.79;103034.59;5081690;27;45359;-77
2022/01/29 00:04:30;;;;;;;;;18.00;14.33;;;;;10.58;57.66;103022.88;5100785;27;45754;-73
2022/01/29 00:06:56;;;;;;;;;19.67;17.67;;;;;10.60;57.71;103026.38;5079311;27;46065;-73
2022/01/29 00:09:21;;;;;;;;;15.67;14.67;;;;;10.64;57.57;103037.88;5095318;27;46126;-74
2022/01/29 00:11:47;;;;;;;;;17.33;13.67;;;;;10.63;56.82;103039.78;5096123;27;45413;-72
2022/01/29 00:14:12;;;;;;;;;17.67;16.33;;;;;10.60;56.96;103023.63;5099055;27;45815;-76
2022/01/29 00:16:40;;;;;;;;;13.67;12.00;;;;;10.58;57.79;103023.78;5098891;27;46125;-75
2022/01/29 00:19:06;;;;;;;;;17.67;17.00;;;;;10.58;57.42;103012.81;5095700;27;46227;-77
2022/01/29 00:21:31;;;;;;;;;17.00;14.67;;;;;10.57;57.82;103011.06;5082299;27;45925;-77
2022/01/29 00:23:57;;;;;;;;;14.67;13.67;;;;;10.59;57.27;103002.69;5102502;27;45422;-77
2022/01/29 00:26:25;;;;;;;;;15.00;13.67;;;;;10.63;57.20;103009.59;5101408;27;45436;-77
2022/01/29 00:28:51;;;;;;;;;19.00;15.00;;;;;10.66;57.76;103000.16;5100459;27;45408;-76
2022/01/29 00:31:18;;;;;;;;;15.33;12.33;;;;;10.67;57.08;103002.75;5078828;27;45888;-71
2022/01/29 00:33:43;;;;;;;;;15.00;15.00;;;;;10.67;57.34;103002.75;5096051;27;45824;-72
2022/01/29 00:36:09;;;;;;;;;15.33;14.67;;;;;10.67;57.63;102999.16;5096050;27;45417;-72
2022/01/29 00:38:35;;;;;;;;;16.67;14.67;;;;;10.63;57.70;103001.34;5076060;27;45684;-72
2022/01/29 00:41:02;;;;;;;;;16.33;12.33;;;;;10.62;57.77;102996.88;5095665;27;45409;-75
2022/01/29 00:43:28;;;;;;;;;12.00;12.00;;;;;10.62;57.42;102990.53;5094500;27;45768;-74
2022/01/29 00:45:54;;;;;;;;;15.00;14.00;;;;;10.62;57.52;102998.78;5094735;27;45429;-73
2022/01/29 00:48:20;;;;;;;;;12.67;12.00;;;;;10.59;58.00;102991.69;5075792;27;48327;-72
2022/01/29 00:50:46;;;;;;;;;17.00;13.67;;;;;10.57;58.03;102982.78;5094165;27;45381;-72
2022/01/29 00:53:11;;;;;;;;;15.33;13.67;;;;;10.57;59.04;102991.00;5082719;27;45672;-72
2022/01/29 00:55:36;;;;;;;;;14.33;11.00;;;;;10.56;58.49;102984.63;5074599;28;45373;-72
2022/01/29 00:58:02;;;;;;;;;12.00;9.33;;;;;10.60;57.65;102977.81;5073875;28;45520;-72
2022/01/29 01:00:27;;;;;;;;;16.33;14.00;;;;;10.60;58.33;102974.22;5074428;28;45886;-76
2022/01/29 01:02:53;;;;;;;;;13.33;13.00;;;;;10.58;58.18;102979.00;5063486;28;45917;-75
2022/01/29 01:05:19;;;;;;;;;18.33;15.00;;;;;10.53;58.48;102975.84;5081137;28;45416;-75
2022/01/29 01:07:44;;;;;;;;;15.67;13.67;;;;;10.50;59.52;102965.19;5079260;28;45733;-77
2022/01/29 01:10:12;;;;;;;;;14.00;13.00;;;;;10.49;59.11;102967.06;5056565;28;45518;-71
2022/01/29 01:12:38;;;;;;;;;17.33;12.33;;;;;10.44;59.43;102965.81;5018076;28;45443;-73
2022/01/29 01:15:04;;;;;;;;;15.33;15.00;;;;;10.45;59.38;102962.03;5038625;28;45732;-73
2022/01/29 01:17:30;;;;;;;;;14.00;11.00;;;;;10.44;59.77;102955.69;5039089;28;45477;-73
2022/01/29 01:19:55;;;;;;;;;15.67;14.33;;;;;10.44;60.05;102961.19;5039688;28;45405;-72
2022/01/29 01:22:21;;;;;;;;;12.33;12.33;;;;;10.38;60.38;102965.38;5047111;28;45909;-74
2022/01/29 01:24:47;;;;;;;;;14.00;14.00;;;;;10.36;60.45;102950.09;5060109;28;45807;-71
2022/01/29 01:27:13;;;;;;;;;10.00;10.00;;;;;10.32;60.90;102951.41;5056958;28;46117;-73
2022/01/29 01:29:39;;;;;;;;;13.00;12.00;;;;;10.25;60.95;102962.09;5060484;28;45491;-77
2022/01/29 01:32:05;;;;;;;;;15.00;12.33;;;;;10.22;61.44;102945.94;5059138;28;45579;-73
2022/01/29 01:34:34;;;;;;;;;13.33;12.00;;;;;10.21;61.96;102942.34;5057041;28;45703;-72
2022/01/29 01:37:06;;;;;;;;;14.67;12.67;;;;;10.19;61.93;102954.50;5056924;28;45824;-74
2022/01/29 01:39:35;;;;;;;;;15.33;13.00;;;;;10.16;62.16;102957.53;5056231;28;45496;-72
2022/01/29 01:42:05;;;;;;;;;15.33;13.00;;;;;10.12;62.28;102956.09;5056169;28;45715;-72
2022/01/29 01:44:45;;;;;;;;;13.33;13.00;;;;;10.10;63.34;102958.16;5038252;28;45555;-72
2022/01/29 01:47:12;;;;;;;;;16.00;14.67;;;;;10.06;63.24;102943.88;5056644;28;46341;-72
2022/01/29 01:49:39;;;;;;;;;14.33;12.67;;;;;10.05;63.28;102948.47;5056777;28;45447;-73
2022/01/29 01:52:08;;;;;;;;;16.00;16.00;;;;;10.06;63.56;102943.88;5055016;28;45433;-72
2022/01/29 01:54:34;;;;;;;;;14.00;10.00;;;;;10.01;63.52;102944.31;5036151;28;45724;-73
2022/01/29 01:57:00;;;;;;;;;14.67;13.33;;;;;10.01;63.35;102938.84;5033411;28;47278;-73
2022/01/29 01:59:26;;;;;;;;;12.33;11.33;;;;;10.06;63.00;102938.41;5055924;28;45411;-72
2022/01/29 02:01:52;;;;;;;;;13.00;11.00;;;;;10.07;63.13;102932.78;5055773;28;45479;-74
2022/01/29 02:04:17;;;;;;;;;9.33;9.33;;;;;10.05;63.43;102929.28;5056120;28;45368;-74
2022/01/29 02:06:43;;;;;;;;;15.67;12.67;;;;;10.08;64.03;102942.69;5056002;28;45380;-70
2022/01/29 02:09:11;;;;;;;;;18.33;14.67;;;;;10.08;63.75;102929.00;5056659;28;45485;-72
2022/01/29 02:11:39;;;;;;;;;15.00;15.00;;;;;10.11;63.57;102933.31;5074839;28;45700;-73
2022/01/29 02:14:05;;;;;;;;;18.33;12.00;;;;;10.06;63.66;102914.59;5076076;28;45732;-72
2022/01/29 02:16:31;;;;;;;;;14.67;12.00;;;;;10.06;63.92;102925.56;5075961;27;45858;-72
2022/01/29 02:18:57;;;;;;;;;13.00;13.00;;;;;10.12;63.89;102928.69;5076364;27;45565;-72
2022/01/29 02:21:27;;;;;;;;;13.00;11.67;;;;;10.13;63.81;102916.72;5075866;27;45904;-72
2022/01/29 02:23:53;;;;;;;;;12.67;12.33;;;;;10.17;63.48;102919.00;5054725;28;45644;-73
2022/01/29 02:26:18;;;;;;;;;14.00;11.00;;;;;10.14;63.64;102915.72;5055686;28;45354;-72
2022/01/29 02:28:43;;;;;;;;;12.67;10.00;;;;;10.12;63.34;102909.50;5055366;28;45458;-72
2022/01/29 02:31:09;;;;;;;;;16.67;14.00;;;;;10.11;63.95;102905.03;5055860;28;45423;-73
2022/01/29 02:33:38;;;;;;;;;13.67;9.67;;;;;10.12;63.75;102898.53;5055886;28;45311;-71
2022/01/29 02:36:04;;;;;;;;;12.67;10.67;;;;;10.12;63.28;102891.19;5055387;28;46055;-72
2022/01/29 02:38:29;;;;;;;;;13.33;13.00;;;;;10.12;63.63;102884.81;5055177;28;45465;-71
2022/01/29 02:41:02;;;;;;;;;15.00;13.00;;;;;10.13;63.78;102879.19;5055777;28;45540;-72
2022/01/29 02:43:34;;;;;;;;;14.00;13.00;;;;;10.09;63.95;102875.03;5055981;28;45824;-72
2022/01/29 02:46:07;;;;;;;;;19.33;12.67;;;;;10.07;64.37;102869.72;5056407;28;46076;-71
2022/01/29 02:48:32;;;;;;;;;12.33;11.00;;;;;10.11;64.16;102863.91;5056285;28;45444;-73
2022/01/29 02:50:58;;;;;;;;;15.00;13.00;;;;;10.15;64.10;102868.06;5053906;28;45838;-71
2022/01/29 02:53:23;;;;;;;;;10.00;10.00;;;;;10.10;63.66;102864.94;5068066;28;45372;-72
2022/01/29 02:55:49;;;;;;;;;18.00;13.67;;;;;10.10;64.77;102859.44;5075319;27;46417;-73
2022/01/29 02:58:14;;;;;;;;;12.33;12.33;;;;;10.04;64.30;102856.31;5075577;27;45699;-71
2022/01/29 03:00:40;;;;;;;;;11.67;10.00;;;;;10.03;64.97;102857.31;5075682;27;45755;-74
2022/01/29 03:03:05;;;;;;;;;10.67;10.00;;;;;10.02;64.63;102847.34;5075676;27;45505;-72
2022/01/29 03:05:31;;;;;;;;;13.33;10.33;;;;;10.05;64.77;102846.19;5075325;27;45698;-73
2022/01/29 03:07:56;;;;;;;;;14.33;11.33;;;;;10.05;64.69;102844.31;5075132;27;45390;-72
2022/01/29 03:10:23;;;;;;;;;14.67;11.67;;;;;10.03;64.72;102843.63;5090305;27;45911;-71
2022/01/29 03:12:49;;;;;;;;;9.00;8.67;;;;;10.03;64.98;102842.72;5074825;28;45777;-73
2022/01/29 03:15:14;;;;;;;;;12.33;10.00;;;;;10.06;65.04;102831.47;5074860;27;45858;-73
2022/01/29 03:17:42;;;;;;;;;11.00;10.00;;;;;10.05;64.84;102833.34;5068650;28;45543;-71
2022/01/29 03:20:09;;;;;;;;;9.33;8.33;;;;;10.03;65.05;102832.66;5056052;28;45808;-71
2022/01/29 03:22:34;;;;;;;;;14.33;11.67;;;;;9.99;65.89;102820.25;5055040;28;45527;-72
2022/01/29 03:25:00;;;;;;;;;10.33;10.33;;;;;10.06;65.28;102834.22;5055942;28;47011;-74
2022/01/29 03:27:25;;;;;;;;;7.00;7.00;;;;;10.11;64.94;102842.00;5055208;28;45403;-73
2022/01/29 03:29:51;;;;;;;;;10.33;8.33;;;;;10.08;65.09;102830.28;5055721;28;45738;-72
2022/01/29 03:32:16;;;;;;;;;13.00;11.00;;;;;10.12;65.53;102835.47;5054886;28;45437;-73
2022/01/29 03:34:42;;;;;;;;;13.67;12.67;;;;;10.11;65.70;102839.25;5055355;28;45817;-72
2022/01/29 03:37:07;;;;;;;;;10.33;8.33;;;;;10.08;65.52;102835.78;5053583;28;45811;-74
2022/01/29 03:39:35;;;;;;;;;8.33;7.33;;;;;10.13;65.54;102835.31;5055074;28;45486;-72
2022/01/29 03:42:05;;;;;;;;;9.00;9.00;;;;;10.12;65.56;102828.13;5053486;28;46957;-72
2022/01/29 03:44:31;;;;;;;;;12.00;9.67;;;;;10.15;65.85;102835.16;5055157;28;45395;-73
2022/01/29 03:46:56;;;;;;;;;10.67;9.00;;;;;10.15;65.34;102826.94;5054463;28;45432;-73
2022/01/29 03:49:22;;;;;;;;;11.33;11.00;;;;;10.18;66.18;102823.88;5054474;28;45349;-72
2022/01/29 03:51:47;;;;;;;;;10.33;9.00;;;;;10.19;65.58;102823.72;5054981;28;45710;-72
2022/01/29 03:54:12;;;;;;;;;9.00;9.00;;;;;10.22;65.94;102817.06;5068034;28;45503;-71
2022/01/29 03:56:38;;;;;;;;;10.00;9.00;;;;;10.26;65.66;102823.97;5055569;28;45899;-71
2022/01/29 03:59:03;;;;;;;;;12.00;10.00;;;;;10.32;65.24;102819.75;5055968;28;45353;-72
2022/01/29 04:01:29;;;;;;;;;10.67;10.67;;;;;10.32;65.35;102822.50;5063929;28;45519;-73
2022/01/29 04:03:55;;;;;;;;;11.67;10.33;;;;;10.31;65.43;102824.34;5073547;28;47434;-74
2022/01/29 04:06:20;;;;;;;;;11.00;9.67;;;;;10.31;66.19;102821.63;5073715;28;45701;-74
2022/01/29 04:08:45;;;;;;;;;13.67;11.67;;;;;10.33;65.89;102825.13;5075265;28;45488;-74
2022/01/29 04:11:13;;;;;;;;;10.67;9.67;;;;;10.31;65.74;102818.88;5073636;28;47110;-73
2022/01/29 04:13:42;;;;;;;;;14.00;9.33;;;;;10.34;65.82;102818.59;5074949;27;45775;-74
2022/01/29 04:16:08;;;;;;;;;13.00;11.00;;;;;10.36;65.55;102821.19;5075226;27;45398;-74
2022/01/29 04:18:34;;;;;;;;;13.00;11.00;;;;;10.37;65.98;102825.66;5069329;27;45864;-72
2022/01/29 04:21:00;;;;;;;;;10.33;9.67;;;;;10.40;65.24;102825.34;5072850;27;45650;-73
2022/01/29 04:23:25;;;;;;;;;11.67;10.67;;;;;10.34;65.42;102818.59;5073988;27;45741;-72
2022/01/29 04:25:52;;;;;;;;;10.67;10.67;;;;;10.35;65.64;102828.56;5074250;28;45728;-74
2022/01/29 04:28:21;;;;;;;;;16.00;11.00;;;;;10.40;65.75;102828.09;5074780;27;45683;-72
2022/01/29 04:30:52;;;;;;;;;13.00;12.67;;;;;10.39;65.28;102832.72;5074828;28;45464;-73
2022/01/29 04:35:43;;;;;;;;;9.00;9.00;;;;;10.43;64.73;102838.75;5074110;27;45770;-72
2022/01/29 04:38:09;;;;;;;;;10.67;10.67;;;;;10.43;65.46;102827.78;5073609;28;45423;-72
2022/01/29 04:40:35;;;;;;;;;14.00;9.33;;;;;10.34;65.41;102806.78;5075261;27;45750;-71
2022/01/29 04:43:02;;;;;;;;;16.00;12.00;;;;;10.41;65.68;102821.59;5074898;27;45672;-73
2022/01/29 04:45:28;;;;;;;;;13.67;11.67;;;;;10.38;66.17;102820.00;5073779;28;45461;-71
2022/01/29 04:47:53;;;;;;;;;9.33;9.33;;;;;10.42;65.76;102821.44;5072078;28;45862;-71
2022/01/29 04:50:19;;;;;;;;;12.00;10.67;;;;;10.44;66.05;102821.28;5073961;27;45534;-71
2022/01/29 04:52:45;;;;;;;;;10.67;10.33;;;;;10.43;66.12;102827.78;5075715;27;47998;-73
2022/01/29 04:55:10;;;;;;;;;12.00;11.00;;;;;10.44;66.01;102820.41;5075127;27;45734;-72
2022/01/29 04:57:41;;;;;;;;;11.33;10.00;;;;;10.41;66.67;102813.34;5075104;27;45500;-72
2022/01/29 05:00:10;;;;;;;;;10.00;9.00;;;;;10.41;66.33;102822.44;5074675;27;45840;-73
2022/01/29 05:02:36;;;;;;;;;10.33;9.33;;;;;10.44;66.49;102823.16;5074508;28;45493;-72
2022/01/29 05:05:03;;;;;;;;;15.00;10.00;;;;;10.41;66.63;102819.69;5074212;27;45593;-72
2022/01/29 05:07:31;;;;;;;;;11.00;9.00;;;;;10.44;66.28;102832.25;5073469;27;45797;-73
2022/01/29 05:09:57;;;;;;;;;11.00;9.00;;;;;10.47;66.16;102822.84;5081345;27;45380;-72
2022/01/29 05:12:28;;;;;;;;;12.33;10.00;;;;;10.47;65.84;102820.94;5093741;27;45425;-71
2022/01/29 05:15:09;;;;;;;;;9.67;8.33;;;;;10.49;65.77;102823.53;5075836;27;45454;-72
2022/01/29 05:28:30;;;;;;;;;10.67;8.67;;;;;10.59;66.05;102821.59;5093869;27;45510;-73
2022/01/29 05:30:56;;;;;;;;;12.33;11.00;;;;;10.49;66.17;102804.34;5092557;27;45489;-72
2022/01/29 05:33:21;;;;;;;;;9.67;8.67;;;;;10.58;66.35;102817.09;5088120;27;47590;-72
2022/01/29 05:35:47;;;;;;;;;9.67;8.67;;;;;10.54;66.22;102816.56;5092114;27;45318;-73
2022/01/29 05:38:12;;;;;;;;;11.00;9.00;;;;;10.53;66.00;102805.75;5092892;27;45382;-73
2022/01/29 05:40:38;;;;;;;;;8.00;8.00;;;;;10.51;66.25;102810.50;5092802;27;45464;-74
2022/01/29 05:43:03;;;;;;;;;14.00;9.00;;;;;10.54;65.79;102810.22;5092827;27;46196;-72
2022/01/29 05:45:29;;;;;;;;;10.00;10.00;;;;;10.55;65.71;102799.09;5073705;27;45891;-73
2022/01/29 05:47:55;;;;;;;;;8.33;8.00;;;;;10.60;66.16;102812.34;5090572;27;45706;-73
2022/01/29 05:50:20;;;;;;;;;17.00;10.33;;;;;10.63;66.35;102798.31;5092157;27;45777;-72
2022/01/29 05:52:55;;;;;;;;;14.00;10.67;;;;;10.62;66.31;102793.81;5073416;27;46401;-73
2022/01/29 05:55:30;;;;;;;;;18.00;13.00;;;;;10.47;66.01;102776.22;5091086;27;45574;-75
2022/01/29 05:57:55;;;;;;;;;9.00;9.00;;;;;10.60;66.17;102784.91;5089769;27;45768;-73
2022/01/29 06:00:20;;;;;;;;;12.00;10.33;;;;;10.71;65.80;102808.47;5081722;27;45737;-73
2022/01/29 06:02:46;;;;;;;;;8.00;7.00;;;;;10.70;65.72;102802.13;5095084;27;46814;-76
2022/01/29 06:05:12;;;;;;;;;16.00;13.33;;;;;10.72;65.94;102789.09;5101606;27;45717;-77
2022/01/29 06:07:37;;;;;;;;;7.33;7.33;;;;;10.75;66.58;102797.03;5098036;27;45493;-76
2022/01/29 06:10:03;;;;;;;;;10.67;9.67;;;;;10.76;66.17;102784.16;5081939;27;45858;-75
2022/01/29 06:12:29;;;;;;;;;10.00;10.00;;;;;10.76;65.96;102781.41;5095577;27;45362;-76
2022/01/29 06:14:54;;;;;;;;;12.67;11.67;;;;;10.77;65.53;102792.22;5103000;27;45867;-75
2022/01/29 06:17:19;;;;;;;;;8.00;8.00;;;;;10.76;66.13;102785.03;5101604;27;45258;-75
2022/01/29 06:19:45;;;;;;;;;8.67;7.67;;;;;10.73;65.48;102785.34;5096157;27;45044;-79
2022/01/29 06:22:13;;;;;;;;;8.00;7.00;;;;;10.75;66.23;102797.03;5098333;27;45497;-77
2022/01/29 06:24:39;;;;;;;;;9.00;9.00;;;;;10.74;65.39;102792.53;5102207;27;45546;-75
2022/01/29 06:27:04;;;;;;;;;12.67;10.33;;;;;10.78;66.03;102795.84;5087279;27;45527;-74
2022/01/29 06:29:30;;;;;;;;;9.00;9.00;;;;;10.81;65.54;102795.53;5083390;27;45495;-75
2022/01/29 06:31:55;;;;;;;;;10.67;10.67;;;;;10.81;65.94;102797.38;5101042;27;45877;-78
2022/01/29 06:34:21;;;;;;;;;14.33;11.33;;;;;10.84;66.14;102788.84;5099044;27;45561;-75
2022/01/29 06:36:46;;;;;;;;;13.33;9.67;;;;;10.88;65.38;102798.47;5079404;28;45893;-78
2022/01/29 06:39:12;;;;;;;;;12.33;9.67;;;;;10.91;65.65;102792.66;5095772;27;45563;-78
2022/01/29 06:41:37;;;;;;;;;7.67;6.33;;;;;10.89;65.75;102795.56;5091280;27;46120;-79
2022/01/29 06:44:03;;;;;;;;;11.00;8.33;;;;;10.87;65.91;102788.53;5102842;27;45884;-79
2022/01/29 06:46:28;;;;;;;;;10.67;9.00;;;;;10.87;65.85;102783.91;5100315;27;45505;-78
2022/01/29 06:48:54;;;;;;;;;10.33;10.33;;;;;10.90;66.33;102791.81;5096150;27;45252;-80
2022/01/29 06:51:19;;;;;;;;;9.33;8.67;;;;;10.90;66.29;102788.22;5095559;27;45804;-78
2022/01/29 06:53:45;;;;;;;;;8.67;7.00;;;;;10.92;66.16;102788.91;5069808;27;45992;-80
2022/01/29 06:56:10;;;;;;;;;7.33;7.33;;;;;10.90;65.97;102786.31;5099299;27;45577;-80
2022/01/29 06:58:36;;;;;;;;;7.33;6.33;;;;;10.90;66.08;102782.72;5099821;27;45543;-79
2022/01/29 07:01:02;;;;;;;;;8.00;8.00;;;;;10.90;66.58;102791.81;5097639;27;45426;-79
2022/01/29 07:03:28;;;;;;;;;10.33;8.00;;;;;10.90;66.59;102790.97;5098413;27;45505;-79
2022/01/29 07:05:53;;;;;;;;;9.67;9.00;;;;;10.91;66.07;102793.53;5094259;27;45476;-80
2022/01/29 07:08:19;;;;;;;;;8.33;7.67;;;;;10.88;66.25;102788.38;5096825;27;45497;-79
2022/01/29 07:10:46;;;;;;;;;7.00;6.67;;;;;10.90;66.37;102788.22;5092432;27;45812;-79
2022/01/29 07:13:11;;;;;;;;;12.67;10.00;;;;;10.95;66.43;102785.84;5094055;27;45866;-78
2022/01/29 07:15:37;;;;;;;;;8.33;7.00;;;;;11.01;66.45;102787.09;5077036;27;45480;-80
2022/01/29 07:18:06;;;;;;;;;5.00;5.00;;;;;10.99;66.04;102781.75;5093478;27;45482;-80
2022/01/29 07:20:34;;;;;;;;;7.00;7.00;;;;;11.07;66.11;102779.03;5086842;27;45553;-79
2022/01/29 07:23:00;;;;;;;;;8.67;6.67;;;;;11.10;65.79;102781.47;5096590;27;45536;-79
2022/01/29 07:25:25;;;;;;;;;8.00;8.00;;;;;11.15;65.76;102780.13;5087425;27;45545;-79
2022/01/29 07:27:51;;;;;;;;;9.00;7.00;;;;;11.11;65.72;102772.22;5076622;28;45889;-80
2022/01/29 07:30:17;;;;;;;;;7.00;6.33;;;;;11.17;65.49;102775.31;5096294;27;45774;-78
2022/01/29 07:32:45;;;;;;;;;5.33;5.33;;;;;11.18;65.60;102775.16;5093932;27;45539;-78
2022/01/29 07:35:12;;;;;;;;;8.33;8.00;;;;;11.20;65.63;102778.63;5095556;27;45829;-80
2022/01/29 07:37:38;;;;;;;;;7.67;7.67;;;;;11.20;65.38;102781.38;5093431;27;45490;-79
2022/01/29 07:40:05;;;;;;;;;9.00;7.67;;;;;11.20;65.32;102778.63;5076934;28;46704;-79
2022/01/29 07:42:30;;;;;;;;;8.67;5.00;;;;;11.22;65.10;102779.31;5078643;27;46225;-81
2022/01/29 07:44:56;;;;;;;;;7.33;7.33;;;;;11.26;65.30;102793.59;5077295;28;45861;-80
2022/01/29 07:47:21;;;;;;;;;5.00;5.00;;;;;11.26;65.34;102788.09;5097936;27;45655;-78
2022/01/29 07:49:47;;;;;;;;;8.00;7.00;;;;;11.29;65.23;102790.53;5093577;27;45402;-79
2022/01/29 07:52:13;;;;;;;;;8.33;7.00;;;;;11.32;65.29;102781.94;5098482;27;45575;-79
2022/01/29 07:54:38;;;;;;;;;8.00;8.00;;;;;11.34;66.08;102784.53;5081330;27;45544;-79
2022/01/29 07:57:04;;;;;;;;;9.00;6.00;;;;;11.35;65.92;102781.63;5094212;27;46043;-80
2022/01/29 07:59:29;;;;;;;;;9.33;7.00;;;;;11.38;65.53;102784.03;5095935;27;45464;-78
2022/01/29 08:01:58;;;;;;;;;7.33;6.33;;;;;11.41;65.32;102783.72;5078272;28;45407;-81
2022/01/29 08:04:24;;;;;;;;;6.67;4.00;;;;;11.39;65.20;102769.28;5079744;28;45740;-79
2022/01/29 08:06:51;;;;;;;;;6.00;5.00;;;;;11.39;65.40;102777.53;5077328;28;45984;-78
2022/01/29 08:09:16;;;;;;;;;5.33;4.00;;;;;11.33;65.24;102767.16;5091196;27;45870;-79
2022/01/29 08:11:46;;;;;;;;;6.00;4.67;;;;;11.42;65.54;102768.94;5102988;27;45371;-80
2022/01/29 08:14:11;;;;;;;;;6.67;5.00;;;;;11.42;65.42;102768.94;5102399;27;45427;-79
2022/01/29 08:16:37;;;;;;;;;5.00;5.00;;;;;11.49;65.16;102774.63;5099155;27;45755;-80
2022/01/29 08:19:02;;;;;;;;;5.00;5.00;;;;;11.53;65.40;102765.03;5085214;27;46312;-79
2022/01/29 08:21:28;;;;;;;;;6.00;6.00;;;;;11.53;65.53;102769.69;5103183;27;44749;-78
2022/01/29 08:23:54;;;;;;;;;7.00;5.00;;;;;11.52;65.47;102778.94;5101930;27;45678;-79
2022/01/29 08:26:23;;;;;;;;;7.00;6.00;;;;;11.54;65.83;102771.38;5084537;27;45989;-86
2022/01/29 08:28:48;;;;;;;;;5.00;4.00;;;;;11.49;65.85;102758.16;5084367;27;47747;-78
2022/01/29 08:31:14;;;;;;;;;6.67;5.00;;;;;11.50;66.17;102759.88;5099487;27;45441;-78
2022/01/29 08:33:39;;;;;;;;;6.67;3.67;;;;;11.61;65.95;102770.56;5101467;27;45351;-80
2022/01/29 08:36:07;;;;;;;;;5.00;5.00;;;;;11.62;65.58;102779.69;5101294;27;45584;-80
2022/01/29 08:38:33;;;;;;;;;12.00;9.00;;;;;11.65;65.83;102776.59;5101212;27;45474;-77
2022/01/29 08:40:58;;;;;;;;;6.00;6.00;;;;;11.63;65.47;102760.28;5104294;27;45385;-80
2022/01/29 08:43:25;;;;;;;;;7.67;6.00;;;;;11.68;65.32;102770.78;5083379;27;45508;-79
2022/01/29 08:45:51;;;;;;;;;6.00;5.00;;;;;11.68;65.38;102776.25;5100869;27;45836;-78
2022/01/29 08:48:17;;;;;;;;;4.00;3.67;;;;;11.68;65.94;102773.50;5084974;27;45400;-78
2022/01/29 08:50:43;;;;;;;;;3.00;3.00;;;;;11.69;65.78;102764.25;5080623;28;45465;-82
2022/01/29 08:53:09;;;;;;;;;6.00;5.00;;;;;11.76;65.49;102769.94;5091340;27;44805;-80
2022/01/29 08:55:36;;;;;;;;;4.33;3.00;;;;;11.76;65.51;102764.44;5083966;27;45541;-79
2022/01/29 08:58:08;;;;;;;;;6.33;4.33;;;;;11.80;65.09;102771.31;5081920;28;47063;-79
2022/01/29 09:00:36;;;;;;;;;4.00;4.00;;;;;11.83;65.50;102752.59;5062184;28;45987;-79
2022/01/29 09:03:01;;;;;;;;;4.00;4.00;;;;;11.87;65.63;102760.50;5063512;28;45439;-80
2022/01/29 09:05:27;;;;;;;;;6.00;3.67;;;;;11.90;65.23;102757.41;5082914;28;45533;-80
2022/01/29 09:07:53;;;;;;;;;7.00;5.67;;;;;11.90;65.01;102757.41;5081719;27;46472;-80
2022/01/29 09:10:18;;;;;;;;;6.00;5.00;;;;;11.94;64.82;102750.59;5065332;28;45312;-79
2022/01/29 09:12:44;;;;;;;;;3.67;3.67;;;;;11.99;65.03;102750.94;5082282;28;45611;-80
2022/01/29 09:15:10;;;;;;;;;4.67;4.00;;;;;11.97;65.17;102751.09;5064319;28;46039;-81
2022/01/29 09:17:39;;;;;;;;;3.33;3.33;;;;;12.02;64.77;102758.88;5089934;27;46549;-80
2022/01/29 09:20:06;;;;;;;;;5.00;5.00;;;;;12.09;65.04;102748.88;5082484;27;45377;-80
2022/01/29 09:22:31;;;;;;;;;5.33;4.00;;;;;12.16;64.19;102749.09;5101931;27;45599;-79
2022/01/29 09:24:56;;;;;;;;;6.33;4.00;;;;;12.29;64.06;102751.31;5101225;27;45732;-80
2022/01/29 09:27:22;;;;;;;;;2.33;1.00;;;;;12.41;64.09;102752.72;5082811;27;47848;-79
2022/01/29 09:29:50;;;;;;;;;4.00;4.00;;;;;12.51;64.07;102755.28;5083835;27;44770;-79
2022/01/29 09:32:15;;;;;;;;;4.33;3.33;;;;;12.57;63.43;102760.09;5083264;27;45532;-80
2022/01/29 09:34:41;;;;;;;;;4.00;4.00;;;;;12.59;63.21;102740.66;5107471;27;45804;-80
2022/01/29 09:37:06;;;;;;;;;2.67;2.67;;;;;12.53;63.23;102740.31;5107825;27;45622;-80
2022/01/29 09:39:32;;;;;;;;;3.33;3.33;;;;;12.56;62.96;102728.13;5107554;27;44802;-79
2022/01/29 09:42:01;;;;;;;;;4.67;4.67;;;;;12.58;63.19;102733.44;5107803;27;45464;-80
2022/01/29 09:44:27;;;;;;;;;3.67;3.67;;;;;12.65;62.83;102742.72;5107270;27;45485;-81
2022/01/29 09:46:56;;;;;;;;;3.00;2.67;;;;;12.66;63.27;102752.69;5102591;27;46405;-79
2022/01/29 09:49:21;;;;;;;;;4.00;3.00;;;;;12.63;62.76;102740.13;5079964;28;45407;-80
2022/01/29 09:51:47;;;;;;;;;4.00;2.67;;;;;12.61;62.86;102746.88;5097771;27;45658;-79
2022/01/29 09:54:12;;;;;;;;;2.00;2.00;;;;;12.60;63.21;102747.88;5101029;27;46331;-79
2022/01/29 09:56:38;;;;;;;;;5.33;4.00;;;;;12.58;63.50;102750.81;5101874;27;46738;-79
2022/01/29 09:59:04;;;;;;;;;4.33;3.67;;;;;12.59;63.77;102748.91;5103032;27;45866;-80
2022/01/29 10:01:29;;;;;;;;;3.00;3.00;;;;;12.56;63.78;102749.25;5103518;27;45443;-79
2022/01/29 10:04:02;;;;;;;;;4.33;4.33;;;;;12.61;63.51;102757.88;5109157;27;45483;-78
2022/01/29 10:06:28;;;;;;;;;5.33;5.00;;;;;12.64;63.44;102752.03;5101780;27;46346;-78
2022/01/29 10:08:54;;;;;;;;;8.00;6.67;;;;;12.62;63.99;102759.56;5088254;28;45233;-77
2022/01/29 10:11:24;;;;;;;;;6.00;4.00;;;;;12.72;63.90;102752.00;5074419;28;45434;-78
2022/01/29 10:13:50;;;;;;;;;4.67;4.67;;;;;12.74;63.68;102763.72;5094127;27;45954;-79
2022/01/29 10:16:22;;;;;;;;;3.00;3.00;;;;;12.81;64.06;102753.69;5107406;27;46246;-79
2022/01/29 10:19:05;;;;;;;;;5.33;4.00;;;;;12.91;63.25;102755.44;5103580;27;44724;-79
2022/01/29 10:21:35;;;;;;;;;10.00;5.67;;;;;13.01;62.75;102756.09;5107892;27;45884;-80
2022/01/29 10:24:17;;;;;;;;;8.67;8.67;;;;;13.07;62.81;102770.03;5109040;27;45934;-80
2022/01/29 10:26:45;;;;;;;;;4.00;4.00;;;;;13.10;62.06;102755.03;5085847;28;47384;-78
2022/01/29 10:29:18;;;;;;;;;6.33;6.33;;;;;13.23;61.99;102765.50;5086956;27;46097;-80
2022/01/29 10:31:48;;;;;;;;;28.33;24.00;;;;;13.33;62.87;102759.78;5109547;27;45553;-79
2022/01/29 10:34:23;;;;;;;;;4.00;4.00;;;;;13.43;62.51;102752.22;5101831;27;45456;-76
2022/01/29 10:37:11;;;;;;;;;3.00;3.00;;;;;13.50;61.85;102747.72;5079214;27;47193;-80
2022/01/29 10:39:37;;;;;;;;;5.33;3.00;;;;;13.58;61.42;102763.34;5084869;27;45990;-82
2022/01/29 10:42:14;;;;;;;;;2.67;2.67;;;;;13.57;61.58;102745.94;5084749;27;45307;-80
2022/01/29 10:44:48;;;;;;;;;2.00;2.00;;;;;13.67;60.60;102750.38;5090158;27;45902;-80
2022/01/29 10:47:14;;;;;;;;;2.33;2.33;;;;;13.66;60.27;102741.22;5102106;27;47182;-79
2022/01/29 10:50:00;;;;;;;;;4.00;3.00;;;;;13.59;61.41;102751.25;5080331;27;45424;-80
2022/01/29 10:52:34;;;;;;;;;3.00;2.00;;;;;13.69;60.74;102754.66;5104502;27;45326;-78
2022/01/29 10:55:10;;;;;;;;;2.00;2.00;;;;;13.78;60.57;102753.56;5104447;27;46176;-78
2022/01/29 10:57:45;;;;;;;;;2.00;1.67;;;;;13.83;60.86;102765.97;5105414;27;45603;-80
2022/01/29 11:00:22;;;;;;;;;1.67;1.67;;;;;13.84;60.51;102760.25;5099911;27;45913;-81
2022/01/29 11:02:48;;;;;;;;;3.00;3.00;;;;;13.78;60.15;102758.22;5107355;27;45538;-81
2022/01/29 11:05:18;;;;;;;;;2.33;2.33;;;;;13.83;60.29;102763.19;5096294;27;44831;-80
2022/01/29 11:07:50;;;;;;;;;3.67;3.00;;;;;13.72;60.24;102735.00;5091529;27;45479;-80
2022/01/29 11:10:16;;;;;;;;;2.33;2.00;;;;;13.82;60.96;102765.13;5096670;27;45150;-78
2022/01/29 11:12:44;;;;;;;;;3.33;3.33;;;;;13.82;60.90;102764.22;5100786;27;45346;-82
2022/01/29 11:15:09;;;;;;;;;1.67;1.67;;;;;13.74;61.02;102766.03;5103466;27;45456;-81
2022/01/29 11:17:35;;;;;;;;;2.00;2.00;;;;;13.75;60.31;102762.19;5101841;27;46844;-82
2022/01/29 11:20:01;;;;;;;;;4.33;3.33;;;;;13.77;60.88;102771.19;5097673;27;45924;-81
2022/01/29 11:22:30;;;;;;;;;5.00;2.33;;;;;13.77;61.00;102762.91;5101573;27;45235;-81
2022/01/29 11:25:01;;;;;;;;;1.00;1.00;;;;;13.75;61.64;102762.19;5089886;27;45486;-81
2022/01/29 11:27:29;;;;;;;;;2.00;2.00;;;;;13.78;61.75;102766.50;5106404;27;46557;-79
2022/01/29 11:29:57;;;;;;;;;1.00;1.00;;;;;13.76;60.58;102763.09;5106766;27;45544;-80